sensor_id;sensor_type;location;lat;lon;timestamp;P1;durP1;ratioP1;P2;durP2;ratioP2
3407;SDS011;1717;50.240;8.406;2024-01-06T00:02:08;8.07;;;2.70;;
3407;SDS011;1717;50.240;8.406;2024-01-06T00:04:36;2.53;;;2.23;;
3407;SDS011;1717;50.240;8.406;2024-01-06T00:07:03;6.87;;;2.90;;
3407;SDS011;1717;50.240;8.406;2024-01-06T00:09:29;5.03;;;3.03;;
3407;SDS011;1717;50.240;8.406;2024-01-06T00:11:56;8.77;;;2.90;;
3407;SDS011;1717;50.240;8.406;2024-01-06T00:14:23;7.13;;;3.03;;
3407;SDS011;1717;50.240;8.406;2024-01-06T00:16:52;3.77;;;2.97;;
3407;SDS011;1717;50.240;8.406;2024-01-06T00:19:18;4.07;;;2.60;;
3407;SDS011;1717;50.240;8.406;2024-01-06T00:21:45;4.00;;;2.90;;
3407;SDS011;1717;50.240;8.406;2024-01-06T00:24:12;7.70;;;2.97;;
3407;SDS011;1717;50.240;8.406;2024-01-06T00:26:39;5.87;;;3.33;;
3407;SDS011;1717;50.240;8.406;2024-01-06T00:29:05;5.07;;;3.10;;
3407;SDS011;1717;50.240;8.406;2024-01-06T00:31:32;5.30;;;3.03;;
3407;SDS011;1717;50.240;8.406;2024-01-06T00:34:00;4.00;;;3.07;;
3407;SDS011;1717;50.240;8.406;2024-01-06T00:36:28;5.63;;;3.50;;
3407;SDS011;1717;50.240;8.406;2024-01-06T00:38:55;3.90;;;2.70;;
3407;SDS011;1717;50.240;8.406;2024-01-06T00:41:22;3.93;;;3.50;;
3407;SDS011;1717;50.240;8.406;2024-01-06T00:43:48;3.57;;;3.27;;
3407;SDS011;1717;50.240;8.406;2024-01-06T00:46:15;7.70;;;3.13;;
3407;SDS011;1717;50.240;8.406;2024-01-06T00:48:42;3.70;;;2.90;;
3407;SDS011;1717;50.240;8.406;2024-01-06T00:51:10;6.53;;;2.87;;
3407;SDS011;1717;50.240;8.406;2024-01-06T00:53:37;6.50;;;3.17;;
3407;SDS011;1717;50.240;8.406;2024-01-06T00:56:04;4.10;;;3.10;;
3407;SDS011;1717;50.240;8.406;2024-01-06T00:58:31;5.23;;;2.70;;
3407;SDS011;1717;50.240;8.406;2024-01-06T01:00:58;2.60;;;2.40;;
3407;SDS011;1717;50.240;8.406;2024-01-06T01:03:25;5.43;;;3.50;;
3407;SDS011;1717;50.240;8.406;2024-01-06T01:05:51;3.00;;;2.63;;
3407;SDS011;1717;50.240;8.406;2024-01-06T01:08:20;5.00;;;3.00;;
3407;SDS011;1717;50.240;8.406;2024-01-06T01:10:46;6.90;;;2.97;;
3407;SDS011;1717;50.240;8.406;2024-01-06T01:13:13;3.90;;;3.03;;
3407;SDS011;1717;50.240;8.406;2024-01-06T01:15:40;9.03;;;2.90;;
3407;SDS011;1717;50.240;8.406;2024-01-06T01:18:07;3.20;;;2.13;;
3407;SDS011;1717;50.240;8.406;2024-01-06T01:20:34;3.87;;;2.83;;
3407;SDS011;1717;50.240;8.406;2024-01-06T01:23:01;2.87;;;2.50;;
3407;SDS011;1717;50.240;8.406;2024-01-06T01:25:29;8.20;;;3.10;;
3407;SDS011;1717;50.240;8.406;2024-01-06T01:27:56;4.40;;;2.40;;
3407;SDS011;1717;50.240;8.406;2024-01-06T01:30:22;6.03;;;2.60;;
3407;SDS011;1717;50.240;8.406;2024-01-06T01:32:49;4.00;;;3.20;;
3407;SDS011;1717;50.240;8.406;2024-01-06T01:35:16;3.80;;;3.10;;
3407;SDS011;1717;50.240;8.406;2024-01-06T01:37:43;4.53;;;3.20;;
3407;SDS011;1717;50.240;8.406;2024-01-06T01:40:10;5.70;;;3.27;;
3407;SDS011;1717;50.240;8.406;2024-01-06T01:42:39;7.63;;;2.53;;
3407;SDS011;1717;50.240;8.406;2024-01-06T01:45:08;4.93;;;2.60;;
3407;SDS011;1717;50.240;8.406;2024-01-06T01:47:34;7.00;;;2.93;;
3407;SDS011;1717;50.240;8.406;2024-01-06T01:50:02;4.87;;;3.03;;
3407;SDS011;1717;50.240;8.406;2024-01-06T01:52:30;2.97;;;2.23;;
3407;SDS011;1717;50.240;8.406;2024-01-06T01:54:57;2.07;;;1.87;;
3407;SDS011;1717;50.240;8.406;2024-01-06T01:57:25;6.87;;;3.00;;
3407;SDS011;1717;50.240;8.406;2024-01-06T01:59:53;5.20;;;2.90;;
3407;SDS011;1717;50.240;8.406;2024-01-06T02:02:21;6.77;;;3.20;;
3407;SDS011;1717;50.240;8.406;2024-01-06T02:04:48;2.90;;;2.53;;
3407;SDS011;1717;50.240;8.406;2024-01-06T02:07:15;5.00;;;2.93;;
3407;SDS011;1717;50.240;8.406;2024-01-06T02:09:42;2.60;;;2.27;;
3407;SDS011;1717;50.240;8.406;2024-01-06T02:12:09;9.83;;;3.10;;
3407;SDS011;1717;50.240;8.406;2024-01-06T02:14:36;5.13;;;2.20;;
3407;SDS011;1717;50.240;8.406;2024-01-06T02:17:05;3.90;;;2.47;;
3407;SDS011;1717;50.240;8.406;2024-01-06T02:19:31;5.80;;;2.20;;
3407;SDS011;1717;50.240;8.406;2024-01-06T02:21:59;3.10;;;2.63;;
3407;SDS011;1717;50.240;8.406;2024-01-06T02:24:26;3.93;;;2.77;;
3407;SDS011;1717;50.240;8.406;2024-01-06T02:26:53;5.23;;;2.33;;
3407;SDS011;1717;50.240;8.406;2024-01-06T02:29:20;3.23;;;2.30;;
3407;SDS011;1717;50.240;8.406;2024-01-06T02:31:47;3.30;;;2.30;;
3407;SDS011;1717;50.240;8.406;2024-01-06T02:34:13;3.70;;;2.60;;
3407;SDS011;1717;50.240;8.406;2024-01-06T02:36:40;4.30;;;2.10;;
3407;SDS011;1717;50.240;8.406;2024-01-06T02:39:08;5.50;;;2.80;;
3407;SDS011;1717;50.240;8.406;2024-01-06T02:41:35;2.90;;;2.20;;
3407;SDS011;1717;50.240;8.406;2024-01-06T02:44:02;4.23;;;2.40;;
3407;SDS011;1717;50.240;8.406;2024-01-06T02:46:29;3.03;;;1.90;;
3407;SDS011;1717;50.240;8.406;2024-01-06T02:48:56;4.90;;;2.40;;
3407;SDS011;1717;50.240;8.406;2024-01-06T02:51:23;3.77;;;3.37;;
3407;SDS011;1717;50.240;8.406;2024-01-06T02:53:50;2.83;;;2.10;;
3407;SDS011;1717;50.240;8.406;2024-01-06T02:56:18;6.03;;;2.47;;
3407;SDS011;1717;50.240;8.406;2024-01-06T02:58:45;7.13;;;2.03;;
3407;SDS011;1717;50.240;8.406;2024-01-06T03:01:11;3.30;;;2.17;;
3407;SDS011;1717;50.240;8.406;2024-01-06T03:03:38;3.73;;;2.63;;
3407;SDS011;1717;50.240;8.406;2024-01-06T03:06:05;2.80;;;2.23;;
3407;SDS011;1717;50.240;8.406;2024-01-06T03:08:32;4.90;;;2.30;;
3407;SDS011;1717;50.240;8.406;2024-01-06T03:11:00;3.07;;;2.10;;
3407;SDS011;1717;50.240;8.406;2024-01-06T03:13:30;3.60;;;2.10;;
3407;SDS011;1717;50.240;8.406;2024-01-06T03:15:57;3.83;;;2.73;;
3407;SDS011;1717;50.240;8.406;2024-01-06T03:18:24;2.20;;;1.83;;
3407;SDS011;1717;50.240;8.406;2024-01-06T03:20:50;5.10;;;2.50;;
3407;SDS011;1717;50.240;8.406;2024-01-06T03:23:17;3.90;;;1.97;;
3407;SDS011;1717;50.240;8.406;2024-01-06T03:25:44;3.23;;;2.37;;
3407;SDS011;1717;50.240;8.406;2024-01-06T03:28:11;4.90;;;2.43;;
3407;SDS011;1717;50.240;8.406;2024-01-06T03:30:39;7.50;;;2.30;;
3407;SDS011;1717;50.240;8.406;2024-01-06T03:33:06;5.03;;;3.07;;
3407;SDS011;1717;50.240;8.406;2024-01-06T03:35:33;3.47;;;2.10;;
3407;SDS011;1717;50.240;8.406;2024-01-06T03:38:00;2.63;;;2.07;;
3407;SDS011;1717;50.240;8.406;2024-01-06T03:40:26;3.97;;;2.10;;
3407;SDS011;1717;50.240;8.406;2024-01-06T03:42:53;2.37;;;2.03;;
3407;SDS011;1717;50.240;8.406;2024-01-06T03:45:20;4.40;;;2.00;;
3407;SDS011;1717;50.240;8.406;2024-01-06T03:47:48;4.17;;;2.00;;
3407;SDS011;1717;50.240;8.406;2024-01-06T03:50:15;2.10;;;1.60;;
3407;SDS011;1717;50.240;8.406;2024-01-06T03:52:42;8.87;;;2.50;;
3407;SDS011;1717;50.240;8.406;2024-01-06T03:55:09;5.70;;;2.10;;
3407;SDS011;1717;50.240;8.406;2024-01-06T03:57:36;4.47;;;2.40;;
3407;SDS011;1717;50.240;8.406;2024-01-06T04:00:03;3.00;;;2.37;;
3407;SDS011;1717;50.240;8.406;2024-01-06T04:02:31;2.27;;;2.03;;
3407;SDS011;1717;50.240;8.406;2024-01-06T04:04:59;3.07;;;1.40;;
3407;SDS011;1717;50.240;8.406;2024-01-06T04:07:26;5.00;;;2.23;;
3407;SDS011;1717;50.240;8.406;2024-01-06T04:09:53;3.93;;;2.00;;
3407;SDS011;1717;50.240;8.406;2024-01-06T04:12:19;2.33;;;1.97;;
3407;SDS011;1717;50.240;8.406;2024-01-06T04:14:46;6.10;;;3.60;;
3407;SDS011;1717;50.240;8.406;2024-01-06T04:17:12;2.00;;;1.90;;
3407;SDS011;1717;50.240;8.406;2024-01-06T04:19:39;5.10;;;1.87;;
3407;SDS011;1717;50.240;8.406;2024-01-06T04:22:07;2.70;;;2.50;;
3407;SDS011;1717;50.240;8.406;2024-01-06T04:24:34;3.70;;;2.10;;
3407;SDS011;1717;50.240;8.406;2024-01-06T04:27:02;2.40;;;2.10;;
3407;SDS011;1717;50.240;8.406;2024-01-06T04:29:29;4.70;;;2.00;;
3407;SDS011;1717;50.240;8.406;2024-01-06T04:31:56;4.37;;;2.10;;
3407;SDS011;1717;50.240;8.406;2024-01-06T04:34:23;4.10;;;2.43;;
3407;SDS011;1717;50.240;8.406;2024-01-06T04:36:50;2.73;;;1.90;;
3407;SDS011;1717;50.240;8.406;2024-01-06T04:39:18;2.20;;;1.97;;
3407;SDS011;1717;50.240;8.406;2024-01-06T04:41:44;4.50;;;1.97;;
3407;SDS011;1717;50.240;8.406;2024-01-06T04:44:11;3.10;;;2.47;;
3407;SDS011;1717;50.240;8.406;2024-01-06T04:46:38;1.90;;;1.70;;
3407;SDS011;1717;50.240;8.406;2024-01-06T04:49:05;2.83;;;1.93;;
3407;SDS011;1717;50.240;8.406;2024-01-06T04:51:32;3.00;;;1.90;;
3407;SDS011;1717;50.240;8.406;2024-01-06T04:53:58;4.23;;;2.37;;
3407;SDS011;1717;50.240;8.406;2024-01-06T04:56:29;2.37;;;2.17;;
3407;SDS011;1717;50.240;8.406;2024-01-06T04:58:56;2.17;;;1.63;;
3407;SDS011;1717;50.240;8.406;2024-01-06T05:01:23;5.37;;;2.27;;
3407;SDS011;1717;50.240;8.406;2024-01-06T05:03:50;4.57;;;2.00;;
3407;SDS011;1717;50.240;8.406;2024-01-06T05:06:17;1.87;;;1.37;;
3407;SDS011;1717;50.240;8.406;2024-01-06T05:08:44;3.87;;;2.10;;
3407;SDS011;1717;50.240;8.406;2024-01-06T05:11:11;6.10;;;2.20;;
3407;SDS011;1717;50.240;8.406;2024-01-06T05:13:39;3.03;;;1.67;;
3407;SDS011;1717;50.240;8.406;2024-01-06T05:16:07;2.10;;;1.63;;
3407;SDS011;1717;50.240;8.406;2024-01-06T05:18:34;5.10;;;2.23;;
3407;SDS011;1717;50.240;8.406;2024-01-06T05:21:01;6.17;;;2.70;;
3407;SDS011;1717;50.240;8.406;2024-01-06T05:23:28;2.13;;;1.93;;
3407;SDS011;1717;50.240;8.406;2024-01-06T05:25:55;2.50;;;1.73;;
3407;SDS011;1717;50.240;8.406;2024-01-06T05:28:22;2.10;;;1.90;;
3407;SDS011;1717;50.240;8.406;2024-01-06T05:30:50;4.27;;;2.50;;
3407;SDS011;1717;50.240;8.406;2024-01-06T05:33:17;2.57;;;2.10;;
3407;SDS011;1717;50.240;8.406;2024-01-06T05:35:44;2.40;;;2.17;;
3407;SDS011;1717;50.240;8.406;2024-01-06T05:38:11;6.40;;;1.93;;
3407;SDS011;1717;50.240;8.406;2024-01-06T05:40:37;1.97;;;1.60;;
3407;SDS011;1717;50.240;8.406;2024-01-06T05:43:04;3.00;;;2.10;;
3407;SDS011;1717;50.240;8.406;2024-01-06T05:45:31;1.83;;;1.73;;
3407;SDS011;1717;50.240;8.406;2024-01-06T05:47:59;3.80;;;2.00;;
3407;SDS011;1717;50.240;8.406;2024-01-06T05:50:26;3.50;;;2.10;;
3407;SDS011;1717;50.240;8.406;2024-01-06T05:52:53;5.60;;;2.07;;
3407;SDS011;1717;50.240;8.406;2024-01-06T05:55:20;5.20;;;2.03;;
3407;SDS011;1717;50.240;8.406;2024-01-06T05:57:47;2.47;;;1.70;;
3407;SDS011;1717;50.240;8.406;2024-01-06T06:00:14;5.07;;;2.17;;
3407;SDS011;1717;50.240;8.406;2024-01-06T06:02:41;7.00;;;2.17;;
3407;SDS011;1717;50.240;8.406;2024-01-06T06:05:09;5.40;;;2.60;;
3407;SDS011;1717;50.240;8.406;2024-01-06T06:07:36;3.17;;;1.57;;
3407;SDS011;1717;50.240;8.406;2024-01-06T06:10:05;6.43;;;2.40;;
3407;SDS011;1717;50.240;8.406;2024-01-06T06:12:33;4.87;;;1.70;;
3407;SDS011;1717;50.240;8.406;2024-01-06T06:15:00;3.07;;;2.03;;
3407;SDS011;1717;50.240;8.406;2024-01-06T06:17:28;3.80;;;1.50;;
3407;SDS011;1717;50.240;8.406;2024-01-06T06:19:55;5.20;;;2.37;;
3407;SDS011;1717;50.240;8.406;2024-01-06T06:22:23;3.47;;;2.00;;
3407;SDS011;1717;50.240;8.406;2024-01-06T06:24:51;7.53;;;2.00;;
3407;SDS011;1717;50.240;8.406;2024-01-06T06:27:18;4.40;;;2.40;;
3407;SDS011;1717;50.240;8.406;2024-01-06T06:29:45;1.53;;;1.23;;
3407;SDS011;1717;50.240;8.406;2024-01-06T06:32:12;2.60;;;1.93;;
3407;SDS011;1717;50.240;8.406;2024-01-06T06:34:39;3.40;;;1.63;;
3407;SDS011;1717;50.240;8.406;2024-01-06T06:37:05;3.70;;;1.67;;
3407;SDS011;1717;50.240;8.406;2024-01-06T06:39:34;13.80;;;2.90;;
3407;SDS011;1717;50.240;8.406;2024-01-06T06:42:01;8.87;;;3.47;;
3407;SDS011;1717;50.240;8.406;2024-01-06T06:44:28;7.47;;;2.53;;
3407;SDS011;1717;50.240;8.406;2024-01-06T06:46:55;4.37;;;1.63;;
3407;SDS011;1717;50.240;8.406;2024-01-06T06:49:22;3.30;;;1.93;;
3407;SDS011;1717;50.240;8.406;2024-01-06T06:51:49;4.47;;;1.97;;
3407;SDS011;1717;50.240;8.406;2024-01-06T06:54:16;2.20;;;1.73;;
3407;SDS011;1717;50.240;8.406;2024-01-06T06:56:44;3.10;;;1.60;;
3407;SDS011;1717;50.240;8.406;2024-01-06T06:59:11;5.00;;;1.90;;
3407;SDS011;1717;50.240;8.406;2024-01-06T07:01:38;2.60;;;1.50;;
3407;SDS011;1717;50.240;8.406;2024-01-06T07:04:05;2.70;;;1.70;;
3407;SDS011;1717;50.240;8.406;2024-01-06T07:06:32;4.53;;;2.07;;
3407;SDS011;1717;50.240;8.406;2024-01-06T07:08:58;7.50;;;2.33;;
3407;SDS011;1717;50.240;8.406;2024-01-06T07:11:25;4.70;;;1.80;;
3407;SDS011;1717;50.240;8.406;2024-01-06T07:13:54;2.17;;;2.00;;
3407;SDS011;1717;50.240;8.406;2024-01-06T07:16:20;4.10;;;2.07;;
3407;SDS011;1717;50.240;8.406;2024-01-06T07:18:47;3.23;;;1.70;;
3407;SDS011;1717;50.240;8.406;2024-01-06T07:21:14;3.83;;;2.20;;
3407;SDS011;1717;50.240;8.406;2024-01-06T07:23:41;2.10;;;1.73;;
3407;SDS011;1717;50.240;8.406;2024-01-06T07:26:08;5.40;;;1.67;;
3407;SDS011;1717;50.240;8.406;2024-01-06T07:28:35;3.90;;;2.23;;
3407;SDS011;1717;50.240;8.406;2024-01-06T07:31:03;6.77;;;2.20;;
3407;SDS011;1717;50.240;8.406;2024-01-06T07:33:30;5.80;;;2.37;;
3407;SDS011;1717;50.240;8.406;2024-01-06T07:35:57;3.23;;;2.03;;
3407;SDS011;1717;50.240;8.406;2024-01-06T07:38:24;2.73;;;2.40;;
3407;SDS011;1717;50.240;8.406;2024-01-06T07:40:51;2.27;;;1.90;;
3407;SDS011;1717;50.240;8.406;2024-01-06T07:43:19;3.90;;;2.23;;
3407;SDS011;1717;50.240;8.406;2024-01-06T07:45:46;4.73;;;2.63;;
3407;SDS011;1717;50.240;8.406;2024-01-06T07:48:14;3.70;;;2.30;;
3407;SDS011;1717;50.240;8.406;2024-01-06T07:50:41;2.30;;;2.10;;
3407;SDS011;1717;50.240;8.406;2024-01-06T07:53:08;2.73;;;2.23;;
3407;SDS011;1717;50.240;8.406;2024-01-06T07:55:35;6.57;;;2.43;;
3407;SDS011;1717;50.240;8.406;2024-01-06T07:58:02;3.23;;;2.43;;
3407;SDS011;1717;50.240;8.406;2024-01-06T08:00:29;2.10;;;1.83;;
3407;SDS011;1717;50.240;8.406;2024-01-06T08:02:56;2.80;;;2.37;;
3407;SDS011;1717;50.240;8.406;2024-01-06T08:05:24;2.87;;;2.07;;
3407;SDS011;1717;50.240;8.406;2024-01-06T08:07:51;4.63;;;2.30;;
3407;SDS011;1717;50.240;8.406;2024-01-06T08:10:18;2.30;;;2.10;;
3407;SDS011;1717;50.240;8.406;2024-01-06T08:12:45;3.37;;;2.70;;
3407;SDS011;1717;50.240;8.406;2024-01-06T08:15:13;3.80;;;2.57;;
3407;SDS011;1717;50.240;8.406;2024-01-06T08:17:40;2.23;;;2.03;;
3407;SDS011;1717;50.240;8.406;2024-01-06T08:20:08;3.20;;;2.63;;
3407;SDS011;1717;50.240;8.406;2024-01-06T08:22:37;2.97;;;2.50;;
3407;SDS011;1717;50.240;8.406;2024-01-06T08:25:04;4.00;;;2.60;;
3407;SDS011;1717;50.240;8.406;2024-01-06T08:27:32;4.87;;;2.50;;
3407;SDS011;1717;50.240;8.406;2024-01-06T08:29:59;3.43;;;2.57;;
3407;SDS011;1717;50.240;8.406;2024-01-06T08:32:26;5.13;;;2.23;;
3407;SDS011;1717;50.240;8.406;2024-01-06T08:34:53;5.70;;;2.70;;
3407;SDS011;1717;50.240;8.406;2024-01-06T08:37:19;6.53;;;2.90;;
3407;SDS011;1717;50.240;8.406;2024-01-06T08:39:48;4.17;;;2.40;;
3407;SDS011;1717;50.240;8.406;2024-01-06T08:42:14;5.00;;;2.97;;
3407;SDS011;1717;50.240;8.406;2024-01-06T08:44:41;2.97;;;2.10;;
3407;SDS011;1717;50.240;8.406;2024-01-06T08:47:09;4.90;;;2.10;;
3407;SDS011;1717;50.240;8.406;2024-01-06T08:49:36;4.60;;;2.57;;
3407;SDS011;1717;50.240;8.406;2024-01-06T08:52:03;2.57;;;2.17;;
3407;SDS011;1717;50.240;8.406;2024-01-06T08:54:30;3.30;;;2.30;;
3407;SDS011;1717;50.240;8.406;2024-01-06T08:56:59;3.93;;;2.07;;
3407;SDS011;1717;50.240;8.406;2024-01-06T08:59:26;2.90;;;2.63;;
3407;SDS011;1717;50.240;8.406;2024-01-06T09:01:53;2.47;;;2.27;;
3407;SDS011;1717;50.240;8.406;2024-01-06T09:04:19;2.80;;;2.30;;
3407;SDS011;1717;50.240;8.406;2024-01-06T09:06:46;5.10;;;2.70;;
3407;SDS011;1717;50.240;8.406;2024-01-06T09:09:13;2.60;;;2.00;;
3407;SDS011;1717;50.240;8.406;2024-01-06T09:11:40;3.90;;;2.23;;
3407;SDS011;1717;50.240;8.406;2024-01-06T09:14:10;2.80;;;1.93;;
3407;SDS011;1717;50.240;8.406;2024-01-06T09:16:37;3.10;;;2.20;;
3407;SDS011;1717;50.240;8.406;2024-01-06T09:19:04;3.30;;;2.43;;
3407;SDS011;1717;50.240;8.406;2024-01-06T09:21:31;3.37;;;2.07;;
3407;SDS011;1717;50.240;8.406;2024-01-06T09:23:57;2.63;;;2.27;;
3407;SDS011;1717;50.240;8.406;2024-01-06T09:26:25;2.00;;;1.80;;
3407;SDS011;1717;50.240;8.406;2024-01-06T09:28:52;3.00;;;2.03;;
3407;SDS011;1717;50.240;8.406;2024-01-06T09:31:20;4.30;;;2.83;;
3407;SDS011;1717;50.240;8.406;2024-01-06T09:33:48;3.00;;;2.40;;
3407;SDS011;1717;50.240;8.406;2024-01-06T09:36:15;2.70;;;2.00;;
3407;SDS011;1717;50.240;8.406;2024-01-06T09:38:42;4.80;;;2.17;;
3407;SDS011;1717;50.240;8.406;2024-01-06T09:41:10;2.93;;;2.10;;
3407;SDS011;1717;50.240;8.406;2024-01-06T09:43:37;2.20;;;2.00;;
3407;SDS011;1717;50.240;8.406;2024-01-06T09:46:05;3.07;;;2.63;;
3407;SDS011;1717;50.240;8.406;2024-01-06T09:48:40;2.67;;;2.47;;
3407;SDS011;1717;50.240;8.406;2024-01-06T09:51:09;4.03;;;2.93;;
3407;SDS011;1717;50.240;8.406;2024-01-06T09:53:39;3.83;;;2.50;;
3407;SDS011;1717;50.240;8.406;2024-01-06T09:56:12;4.00;;;2.73;;
3407;SDS011;1717;50.240;8.406;2024-01-06T09:58:40;3.40;;;2.33;;
3407;SDS011;1717;50.240;8.406;2024-01-06T10:01:08;3.13;;;2.83;;
3407;SDS011;1717;50.240;8.406;2024-01-06T10:03:37;3.50;;;2.73;;
3407;SDS011;1717;50.240;8.406;2024-01-06T10:06:04;3.70;;;2.20;;
3407;SDS011;1717;50.240;8.406;2024-01-06T10:08:31;3.10;;;2.80;;
3407;SDS011;1717;50.240;8.406;2024-01-06T10:11:00;5.87;;;2.90;;
3407;SDS011;1717;50.240;8.406;2024-01-06T10:13:27;2.50;;;2.23;;
3407;SDS011;1717;50.240;8.406;2024-01-06T10:15:54;2.83;;;2.50;;
3407;SDS011;1717;50.240;8.406;2024-01-06T10:18:21;3.90;;;3.00;;
3407;SDS011;1717;50.240;8.406;2024-01-06T10:20:49;5.47;;;2.30;;
3407;SDS011;1717;50.240;8.406;2024-01-06T10:23:16;3.10;;;2.60;;
3407;SDS011;1717;50.240;8.406;2024-01-06T10:25:43;3.30;;;2.10;;
3407;SDS011;1717;50.240;8.406;2024-01-06T10:28:11;2.50;;;2.30;;
3407;SDS011;1717;50.240;8.406;2024-01-06T10:30:38;3.67;;;2.97;;
3407;SDS011;1717;50.240;8.406;2024-01-06T10:33:07;2.67;;;2.40;;
3407;SDS011;1717;50.240;8.406;2024-01-06T10:35:35;3.57;;;2.70;;
3407;SDS011;1717;50.240;8.406;2024-01-06T10:38:04;5.80;;;2.93;;
3407;SDS011;1717;50.240;8.406;2024-01-06T10:40:32;3.17;;;2.50;;
3407;SDS011;1717;50.240;8.406;2024-01-06T10:42:59;2.43;;;2.20;;
3407;SDS011;1717;50.240;8.406;2024-01-06T10:45:25;4.50;;;3.30;;
3407;SDS011;1717;50.240;8.406;2024-01-06T10:47:55;4.80;;;2.40;;
3407;SDS011;1717;50.240;8.406;2024-01-06T10:50:23;3.03;;;2.67;;
3407;SDS011;1717;50.240;8.406;2024-01-06T10:52:50;5.40;;;2.83;;
3407;SDS011;1717;50.240;8.406;2024-01-06T10:55:19;3.43;;;3.00;;
3407;SDS011;1717;50.240;8.406;2024-01-06T10:57:48;4.17;;;3.43;;
3407;SDS011;1717;50.240;8.406;2024-01-06T11:00:16;3.57;;;3.27;;
3407;SDS011;1717;50.240;8.406;2024-01-06T11:02:44;2.87;;;2.57;;
3407;SDS011;1717;50.240;8.406;2024-01-06T11:05:12;4.50;;;3.20;;
3407;SDS011;1717;50.240;8.406;2024-01-06T11:07:39;4.17;;;3.10;;
3407;SDS011;1717;50.240;8.406;2024-01-06T11:10:09;4.53;;;4.13;;
3407;SDS011;1717;50.240;8.406;2024-01-06T11:12:41;3.80;;;2.83;;
3407;SDS011;1717;50.240;8.406;2024-01-06T11:15:09;3.63;;;2.93;;
3407;SDS011;1717;50.240;8.406;2024-01-06T11:17:51;4.50;;;3.53;;
3407;SDS011;1717;50.240;8.406;2024-01-06T11:20:20;3.70;;;2.90;;
3407;SDS011;1717;50.240;8.406;2024-01-06T11:22:48;3.97;;;3.23;;
3407;SDS011;1717;50.240;8.406;2024-01-06T11:25:16;3.27;;;2.73;;
3407;SDS011;1717;50.240;8.406;2024-01-06T11:27:45;2.73;;;2.53;;
3407;SDS011;1717;50.240;8.406;2024-01-06T11:30:19;2.90;;;2.60;;
3407;SDS011;1717;50.240;8.406;2024-01-06T11:32:47;3.20;;;3.00;;
3407;SDS011;1717;50.240;8.406;2024-01-06T11:35:14;7.03;;;2.50;;
3407;SDS011;1717;50.240;8.406;2024-01-06T11:37:53;3.50;;;3.17;;
3407;SDS011;1717;50.240;8.406;2024-01-06T11:40:22;3.80;;;3.40;;
3407;SDS011;1717;50.240;8.406;2024-01-06T11:42:59;3.27;;;2.90;;
3407;SDS011;1717;50.240;8.406;2024-01-06T11:45:29;4.73;;;3.60;;
3407;SDS011;1717;50.240;8.406;2024-01-06T11:47:56;3.40;;;3.10;;
3407;SDS011;1717;50.240;8.406;2024-01-06T11:50:24;3.50;;;2.70;;
3407;SDS011;1717;50.240;8.406;2024-01-06T11:52:51;4.03;;;3.57;;
3407;SDS011;1717;50.240;8.406;2024-01-06T11:55:18;2.90;;;2.70;;
3407;SDS011;1717;50.240;8.406;2024-01-06T11:57:45;4.30;;;3.30;;
3407;SDS011;1717;50.240;8.406;2024-01-06T12:00:16;3.23;;;2.93;;
3407;SDS011;1717;50.240;8.406;2024-01-06T12:02:43;2.90;;;2.60;;
3407;SDS011;1717;50.240;8.406;2024-01-06T12:05:13;4.37;;;2.53;;
3407;SDS011;1717;50.240;8.406;2024-01-06T12:07:41;3.03;;;2.60;;
3407;SDS011;1717;50.240;8.406;2024-01-06T12:10:08;2.37;;;2.17;;
3407;SDS011;1717;50.240;8.406;2024-01-06T12:12:36;3.47;;;2.20;;
3407;SDS011;1717;50.240;8.406;2024-01-06T12:15:04;3.70;;;2.13;;
3407;SDS011;1717;50.240;8.406;2024-01-06T12:17:36;2.10;;;1.90;;
3407;SDS011;1717;50.240;8.406;2024-01-06T12:20:07;2.40;;;1.97;;
3407;SDS011;1717;50.240;8.406;2024-01-06T12:22:35;3.40;;;2.77;;
3407;SDS011;1717;50.240;8.406;2024-01-06T12:25:02;1.97;;;1.87;;
3407;SDS011;1717;50.240;8.406;2024-01-06T12:27:31;3.30;;;1.97;;
3407;SDS011;1717;50.240;8.406;2024-01-06T12:29:58;2.50;;;2.03;;
3407;SDS011;1717;50.240;8.406;2024-01-06T12:32:25;2.87;;;1.87;;
3407;SDS011;1717;50.240;8.406;2024-01-06T12:34:54;2.47;;;2.07;;
3407;SDS011;1717;50.240;8.406;2024-01-06T12:37:22;2.30;;;1.97;;
3407;SDS011;1717;50.240;8.406;2024-01-06T12:39:49;2.53;;;2.33;;
3407;SDS011;1717;50.240;8.406;2024-01-06T12:42:17;4.07;;;3.60;;
3407;SDS011;1717;50.240;8.406;2024-01-06T12:44:45;5.77;;;5.27;;
3407;SDS011;1717;50.240;8.406;2024-01-06T12:47:11;6.00;;;5.50;;
3407;SDS011;1717;50.240;8.406;2024-01-06T12:49:39;6.00;;;5.50;;
3407;SDS011;1717;50.240;8.406;2024-01-06T12:52:07;5.90;;;5.40;;
3407;SDS011;1717;50.240;8.406;2024-01-06T12:54:34;6.20;;;5.60;;
3407;SDS011;1717;50.240;8.406;2024-01-06T12:57:00;6.87;;;5.70;;
3407;SDS011;1717;50.240;8.406;2024-01-06T12:59:27;7.70;;;6.20;;
3407;SDS011;1717;50.240;8.406;2024-01-06T13:01:55;6.67;;;5.97;;
3407;SDS011;1717;50.240;8.406;2024-01-06T13:04:22;7.77;;;6.40;;
3407;SDS011;1717;50.240;8.406;2024-01-06T13:06:49;9.37;;;7.80;;
3407;SDS011;1717;50.240;8.406;2024-01-06T13:09:17;8.00;;;7.20;;
3407;SDS011;1717;50.240;8.406;2024-01-06T13:11:44;9.43;;;8.33;;
3407;SDS011;1717;50.240;8.406;2024-01-06T13:14:12;9.07;;;7.90;;
3407;SDS011;1717;50.240;8.406;2024-01-06T13:16:39;11.50;;;7.80;;
3407;SDS011;1717;50.240;8.406;2024-01-06T13:19:06;10.40;;;8.37;;
3407;SDS011;1717;50.240;8.406;2024-01-06T13:21:33;9.57;;;8.20;;
3407;SDS011;1717;50.240;8.406;2024-01-06T13:24:00;9.80;;;7.93;;
3407;SDS011;1717;50.240;8.406;2024-01-06T13:26:30;9.80;;;8.73;;
3407;SDS011;1717;50.240;8.406;2024-01-06T13:28:57;11.27;;;8.50;;
3407;SDS011;1717;50.240;8.406;2024-01-06T13:31:24;9.63;;;7.57;;
3407;SDS011;1717;50.240;8.406;2024-01-06T13:33:51;8.70;;;6.70;;
3407;SDS011;1717;50.240;8.406;2024-01-06T13:36:19;10.10;;;7.87;;
3407;SDS011;1717;50.240;8.406;2024-01-06T13:38:46;12.53;;;8.83;;
3407;SDS011;1717;50.240;8.406;2024-01-06T13:41:13;10.07;;;7.60;;
3407;SDS011;1717;50.240;8.406;2024-01-06T13:43:42;8.70;;;6.40;;
3407;SDS011;1717;50.240;8.406;2024-01-06T13:46:10;8.60;;;7.00;;
3407;SDS011;1717;50.240;8.406;2024-01-06T13:48:38;9.43;;;6.97;;
3407;SDS011;1717;50.240;8.406;2024-01-06T13:51:05;8.40;;;6.00;;
3407;SDS011;1717;50.240;8.406;2024-01-06T13:53:32;8.03;;;6.23;;
3407;SDS011;1717;50.240;8.406;2024-01-06T13:55:59;9.90;;;6.73;;
3407;SDS011;1717;50.240;8.406;2024-01-06T13:58:26;10.53;;;7.60;;
3407;SDS011;1717;50.240;8.406;2024-01-06T14:00:54;10.93;;;7.37;;
3407;SDS011;1717;50.240;8.406;2024-01-06T14:03:21;8.40;;;6.20;;
3407;SDS011;1717;50.240;8.406;2024-01-06T14:05:48;10.40;;;7.00;;
3407;SDS011;1717;50.240;8.406;2024-01-06T14:08:16;9.03;;;6.80;;
3407;SDS011;1717;50.240;8.406;2024-01-06T14:10:43;10.13;;;6.37;;
3407;SDS011;1717;50.240;8.406;2024-01-06T14:13:10;11.07;;;7.67;;
3407;SDS011;1717;50.240;8.406;2024-01-06T14:15:36;9.83;;;7.37;;
3407;SDS011;1717;50.240;8.406;2024-01-06T14:18:05;9.50;;;6.43;;
3407;SDS011;1717;50.240;8.406;2024-01-06T14:20:35;11.20;;;6.57;;
3407;SDS011;1717;50.240;8.406;2024-01-06T14:23:03;10.80;;;7.63;;
3407;SDS011;1717;50.240;8.406;2024-01-06T14:25:30;11.80;;;7.60;;
3407;SDS011;1717;50.240;8.406;2024-01-06T14:27:57;9.53;;;7.37;;
3407;SDS011;1717;50.240;8.406;2024-01-06T14:30:23;9.77;;;7.80;;
3407;SDS011;1717;50.240;8.406;2024-01-06T14:32:50;10.53;;;8.00;;
3407;SDS011;1717;50.240;8.406;2024-01-06T14:35:18;10.00;;;7.47;;
3407;SDS011;1717;50.240;8.406;2024-01-06T14:37:45;13.40;;;8.77;;
3407;SDS011;1717;50.240;8.406;2024-01-06T14:40:12;10.33;;;8.03;;
3407;SDS011;1717;50.240;8.406;2024-01-06T14:42:40;10.37;;;7.40;;
3407;SDS011;1717;50.240;8.406;2024-01-06T14:45:07;9.03;;;6.73;;
3407;SDS011;1717;50.240;8.406;2024-01-06T14:47:34;8.87;;;6.87;;
3407;SDS011;1717;50.240;8.406;2024-01-06T14:50:01;10.33;;;7.80;;
3407;SDS011;1717;50.240;8.406;2024-01-06T14:52:30;10.30;;;7.87;;
3407;SDS011;1717;50.240;8.406;2024-01-06T14:54:56;9.93;;;6.73;;
3407;SDS011;1717;50.240;8.406;2024-01-06T14:57:23;7.63;;;6.00;;
3407;SDS011;1717;50.240;8.406;2024-01-06T14:59:50;10.20;;;7.40;;
3407;SDS011;1717;50.240;8.406;2024-01-06T15:02:17;9.10;;;7.27;;
3407;SDS011;1717;50.240;8.406;2024-01-06T15:04:44;8.63;;;6.53;;
3407;SDS011;1717;50.240;8.406;2024-01-06T15:07:11;10.20;;;7.00;;
3407;SDS011;1717;50.240;8.406;2024-01-06T15:09:39;7.80;;;6.33;;
3407;SDS011;1717;50.240;8.406;2024-01-06T15:12:07;8.70;;;6.67;;
3407;SDS011;1717;50.240;8.406;2024-01-06T15:14:34;9.30;;;6.40;;
3407;SDS011;1717;50.240;8.406;2024-01-06T15:17:01;8.87;;;6.50;;